Detalii statie ERDEI ROBERT [00001D0F]

Toti senzorii

Date Temperatura solului [C]Precipitatii [mm]Voltaj baterie [mV]Leaf Wetness [Min]HC Air temperature [C]HC Relative humidity [%]Punctul de roua [C]
medieminmaxsumaultimatimpmedieminmaxmediemediemin
2019-04-19 19:00:00 0 6738 17.81 16.7 18.99 0 0 0
2019-04-19 20:00:00 0 6678 14.85 13.5 16.44 0 0 0
2019-04-19 21:00:00 0 6668 13.01 11.7 13.7 0 0 0
2019-04-19 22:00:00 0 6668 10.86 9.89 11.48 0 0 0
2019-04-19 23:00:00 0 6650 8.72 8.17 9.42 0 0 0
2019-04-20 00:00:00 0 6660 7.76 6.82 8.7 0 0 0
2019-04-20 01:00:00 0 6640 7.05 5.98 7.81 0 0 0
2019-04-20 02:00:00 0 6650 5.35 4.84 5.78 0 0 0
2019-04-20 03:00:00 0 6650 4.49 3.73 5.39 0 0 0
2019-04-20 04:00:00 0 6640 2.74 1.42 4.05 0 0 0
2019-04-20 05:00:00 0 6640 3.12 2.73 3.63 0 0 0
2019-04-20 06:00:00 0 6640 2.51 1.86 3.4 0 0 0
2019-04-20 07:00:00 0 6748 3.54 1.96 6.1 0 0 0
2019-04-20 08:00:00 0 7148 8.5 6.42 10.33 0 0 0
2019-04-20 09:00:00 0 7166 12.86 10.72 14.95 0 0 0
2019-04-20 10:00:00 0 7158 16.35 15.16 17.22 0 0 0
2019-04-20 11:00:00 0 7158 17.33 16.66 17.98 0 0 0
2019-04-20 12:00:00 0 7158 18.35 17.45 19.13 0 0 0
2019-04-20 13:00:00 0 7158 19.05 18.49 19.51 0 0 0
2019-04-20 14:00:00 0 7158 19.66 18.99 20.29 0 0 0
2019-04-20 15:00:00 0 7148 19.96 19.51 20.69 0 0 0
2019-04-20 16:00:00 0 7118 20.13 19.68 20.59 0 0 0
2019-04-20 17:00:00 0 6826 19.74 19.37 20.24 0 0 0
2019-04-20 18:00:00 0 7118 18.89 18.38 19.27 0 0 0
2019-04-20 19:00:00 0 6718 17.49 16.46 18.31 0 0 0
2019-04-20 20:00:00 0 6678 15.04 13.25 16.49 0 0 0
2019-04-20 21:00:00 0 6668 9.89 8.85 12.21 0 0 0
2019-04-20 22:00:00 0 6668 8.78 7.74 10.5 0 0 0
2019-04-20 23:00:00 0 6660 9.05 7.76 9.64 0 0 0
2019-04-21 00:00:00 0 6650 6.68 5.68 8.01 0 0 0
2019-04-21 01:00:00 0 6640 5.4 4.87 5.82 0 0 0
2019-04-21 02:00:00 0 6650 5.46 5.23 5.73 0 0 0
2019-04-21 03:00:00 0 6650 5.82 5.25 6.11 0 0 0
2019-04-21 04:00:00 0 6650 6.66 6 7.19 0 0 0
2019-04-21 05:00:00 0 6640 6.76 6.3 7.22 0 0 0
2019-04-21 06:00:00 0 6640 7.34 6.82 7.95 0 0 0
2019-04-21 07:00:00 0 6698 8.83 7.85 9.65 0 0 0
2019-04-21 08:00:00 0 6914 11.2 9.74 12.3 0 0 0
2019-04-21 09:00:00 0 7166 13.6 12.43 14.58 0 0 0
2019-04-21 10:00:00 0 7158 15.83 15.18 16.88 0 0 0
2019-04-21 11:00:00 0 7158 17.49 16.27 18.94 0 0 0
2019-04-21 12:00:00 0 7158 19.48 18.18 20.77 0 0 0
2019-04-21 13:00:00 0 7158 20.73 19.71 21.58 0 0 0
2019-04-21 14:00:00 0 7158 21.74 21.17 22.25 0 0 0
2019-04-21 15:00:00 0 7166 21.92 21.58 22.64 0 0 0
2019-04-21 16:00:00 0 7128 21.93 21.66 22.36 0 0 0
2019-04-21 17:00:00 0 7118 21.56 21.37 22.05 0 0 0
2019-04-21 18:00:00 0 7118 20.93 20.3 21.5 0 0 0